createdAt,value
2022-12-03T00:00:17.321Z,13.87
2022-12-03T00:02:45.683Z,12.97
2022-12-03T00:05:14.006Z,12.07
2022-12-03T00:07:42.401Z,13.43
2022-12-03T00:10:11.723Z,13.87
2022-12-03T00:12:40.352Z,13.07
2022-12-03T00:15:12.158Z,13.10
2022-12-03T00:17:40.507Z,13.93
2022-12-03T00:20:12.765Z,12.23
2022-12-03T00:22:41.146Z,13.20
2022-12-03T00:25:10.868Z,13.30
2022-12-03T00:27:39.168Z,15.33
2022-12-03T00:30:11.476Z,13.47
2022-12-03T00:32:39.818Z,15.00
2022-12-03T00:35:09.036Z,14.23
2022-12-03T00:37:37.358Z,14.13
2022-12-03T00:40:07.735Z,12.60
2022-12-03T00:42:36.038Z,13.50
2022-12-03T00:45:06.081Z,13.50
2022-12-03T00:47:35.928Z,12.63
2022-12-03T00:50:04.384Z,12.73
2022-12-03T00:52:32.686Z,13.27
2022-12-03T00:55:01.494Z,13.57
2022-12-03T00:57:29.960Z,12.63
2022-12-03T00:59:58.365Z,13.50
2022-12-03T01:02:26.674Z,13.50
2022-12-03T01:04:56.632Z,13.67
2022-12-03T01:07:26.613Z,12.83
2022-12-03T01:09:54.908Z,13.37
2022-12-03T01:12:23.216Z,13.73
2022-12-03T01:14:51.821Z,13.33
2022-12-03T01:17:20.395Z,13.73
2022-12-03T01:19:48.801Z,13.53
2022-12-03T01:22:18.414Z,14.10
2022-12-03T01:24:46.656Z,14.40
2022-12-03T01:27:14.931Z,13.97
2022-12-03T01:29:43.281Z,12.93
2022-12-03T01:32:18.217Z,13.40
2022-12-03T01:34:47.886Z,13.97
2022-12-03T01:37:19.145Z,13.93
2022-12-03T01:39:47.756Z,12.60
2022-12-03T01:42:20.066Z,13.70
2022-12-03T01:44:49.148Z,12.70
2022-12-03T01:47:19.403Z,12.87
2022-12-03T01:49:52.157Z,14.63
2022-12-03T01:52:25.297Z,12.80
2022-12-03T01:54:56.943Z,13.57
2022-12-03T01:57:29.515Z,13.67
2022-12-03T01:59:59.592Z,14.17
2022-12-03T02:02:30.989Z,12.20
2022-12-03T02:04:59.945Z,13.67
2022-12-03T02:07:32.458Z,12.87
2022-12-03T02:10:02.993Z,13.40
2022-12-03T02:12:37.579Z,14.80
2022-12-03T02:15:07.651Z,15.27
2022-12-03T02:17:36.140Z,14.33
2022-12-03T02:20:09.941Z,15.43
2022-12-03T02:22:47.902Z,14.53
2022-12-03T02:25:20.796Z,14.63
2022-12-03T02:27:50.202Z,14.30
2022-12-03T02:30:23.017Z,15.17
2022-12-03T02:32:53.208Z,14.53
2022-12-03T02:35:25.798Z,14.67
2022-12-03T02:37:59.397Z,14.17
2022-12-03T02:40:33.176Z,14.00
2022-12-03T02:43:04.225Z,14.43
2022-12-03T02:45:36.050Z,14.37
2022-12-03T02:48:11.537Z,13.77
2022-12-03T02:50:44.067Z,14.57
2022-12-03T02:53:19.249Z,15.40
2022-12-03T02:55:49.794Z,15.67
2022-12-03T02:58:18.785Z,14.83
2022-12-03T03:00:49.370Z,14.67
2022-12-03T03:06:12.729Z,14.30
2022-12-03T03:08:43.043Z,14.73
2022-12-03T03:11:13.252Z,15.57
2022-12-03T03:13:41.866Z,14.90
2022-12-03T03:16:10.725Z,15.80
2022-12-03T03:18:40.171Z,16.00
2022-12-03T03:21:09.008Z,16.80
2022-12-03T03:23:37.302Z,16.50
2022-12-03T03:26:11.438Z,15.30
2022-12-03T03:28:44.389Z,16.70
2022-12-03T03:31:15.995Z,16.07
2022-12-03T03:33:46.835Z,15.83
2022-12-03T03:36:16.587Z,16.83
2022-12-03T03:38:45.472Z,17.17
2022-12-03T03:41:14.812Z,17.20
2022-12-03T03:43:45.398Z,17.50
2022-12-03T03:46:14.153Z,16.23
2022-12-03T03:48:57.578Z,15.80
2022-12-03T03:51:26.262Z,16.80
2022-12-03T03:53:54.698Z,17.33
2022-12-03T03:56:23.573Z,16.00
2022-12-03T03:58:53.206Z,17.77
2022-12-03T04:01:22.026Z,16.40
2022-12-03T04:03:50.439Z,17.07
2022-12-03T04:06:18.815Z,17.37
2022-12-03T04:08:47.670Z,19.17
2022-12-03T04:11:33.485Z,17.97
2022-12-03T04:14:03.198Z,17.27
2022-12-03T04:16:31.587Z,16.83
2022-12-03T04:18:59.950Z,18.33
2022-12-03T04:21:45.858Z,18.23
2022-12-03T04:24:14.246Z,19.57
2022-12-03T04:27:00.260Z,18.90
2022-12-03T04:29:29.904Z,17.53
2022-12-03T04:32:16.685Z,19.53
2022-12-03T04:35:02.692Z,19.63
2022-12-03T04:37:31.004Z,18.03
2022-12-03T04:39:59.273Z,18.50
2022-12-03T04:42:27.545Z,19.13
2022-12-03T04:44:58.383Z,17.93
2022-12-03T04:47:26.671Z,20.37
2022-12-03T04:49:54.976Z,20.60
2022-12-03T04:52:23.232Z,18.93
2022-12-03T04:54:51.733Z,19.33
2022-12-03T04:57:20.228Z,21.00
2022-12-03T04:59:48.469Z,19.03
2022-12-03T05:02:18.392Z,20.20
2022-12-03T05:04:47.651Z,21.17
2022-12-03T05:07:24.643Z,19.40
2022-12-03T05:10:09.466Z,21.23
2022-12-03T05:12:37.831Z,21.30
2022-12-03T05:15:08.082Z,20.67
2022-12-03T05:17:37.802Z,20.70
2022-12-03T05:20:25.266Z,20.87
2022-12-03T05:22:53.552Z,20.53
2022-12-03T05:25:21.838Z,20.90
2022-12-03T05:27:50.151Z,19.93
2022-12-03T05:30:18.935Z,19.97
2022-12-03T05:32:48.554Z,20.30
2022-12-03T05:35:17.026Z,20.87
2022-12-03T05:37:45.301Z,20.03
2022-12-03T05:40:14.978Z,21.20
2022-12-03T05:42:54.422Z,19.37
2022-12-03T05:45:23.423Z,20.07
2022-12-03T05:47:53.716Z,18.93
2022-12-03T05:50:23.500Z,19.57
2022-12-03T05:52:52.488Z,18.57
2022-12-03T05:55:21.191Z,19.83
2022-12-03T05:57:49.611Z,20.30
2022-12-03T06:00:21.494Z,20.50
2022-12-03T06:02:49.900Z,20.43
2022-12-03T06:05:20.999Z,18.40
2022-12-03T06:07:51.081Z,18.83
2022-12-03T06:10:21.969Z,19.90
2022-12-03T06:12:50.536Z,18.77
2022-12-03T06:15:19.310Z,17.87
2022-12-03T06:17:47.908Z,18.20
2022-12-03T06:20:20.060Z,18.70
2022-12-03T06:22:48.822Z,18.53
2022-12-03T06:25:17.627Z,18.83
2022-12-03T06:27:46.078Z,19.00
2022-12-03T06:30:15.736Z,18.87
2022-12-03T06:32:43.954Z,16.50
2022-12-03T06:35:12.655Z,17.60
2022-12-03T06:37:42.275Z,18.13
2022-12-03T06:40:13.392Z,17.57
2022-12-03T06:42:42.094Z,16.80
2022-12-03T06:45:11.472Z,17.50
2022-12-03T06:47:39.729Z,17.67
2022-12-03T06:50:09.601Z,17.67
2022-12-03T06:52:37.915Z,17.33
2022-12-03T06:55:09.236Z,17.23
2022-12-03T06:57:37.491Z,18.17
2022-12-03T07:00:09.465Z,17.07
2022-12-03T07:02:37.770Z,16.43
2022-12-03T07:05:07.633Z,16.07
2022-12-03T07:07:41.349Z,14.93
2022-12-03T07:10:12.366Z,14.67
2022-12-03T07:12:40.628Z,13.83
2022-12-03T07:15:10.128Z,13.63
2022-12-03T07:17:38.419Z,14.17
2022-12-03T07:20:09.005Z,13.83
2022-12-03T07:22:37.329Z,13.73
2022-12-03T07:25:07.278Z,13.53
2022-12-03T07:27:36.948Z,13.53
2022-12-03T07:30:06.894Z,12.43
2022-12-03T07:32:35.103Z,14.00
2022-12-03T07:35:07.203Z,14.27
2022-12-03T07:37:35.529Z,13.90
2022-12-03T07:40:04.945Z,14.07
2022-12-03T07:42:33.325Z,13.90
2022-12-03T07:45:03.521Z,13.63
2022-12-03T07:47:31.856Z,13.47
2022-12-03T07:50:00.144Z,14.57
2022-12-03T07:52:28.361Z,13.60
2022-12-03T07:54:56.709Z,13.40
2022-12-03T07:57:25.089Z,15.17
2022-12-03T07:59:53.368Z,13.70
2022-12-03T08:02:23.040Z,14.03
2022-12-03T08:04:56.934Z,13.57
2022-12-03T08:07:25.793Z,14.10
2022-12-03T08:09:54.272Z,13.93
2022-12-03T08:12:40.071Z,12.97
2022-12-03T08:15:14.956Z,13.10
2022-12-03T08:17:46.273Z,12.43
2022-12-03T08:20:18.473Z,13.53
2022-12-03T08:22:49.500Z,12.70
2022-12-03T08:25:23.523Z,12.43
2022-12-03T08:27:54.699Z,10.97
2022-12-03T08:30:23.204Z,11.00
2022-12-03T08:32:52.999Z,12.97
2022-12-03T08:35:25.266Z,14.03
2022-12-03T08:38:00.865Z,14.30
2022-12-03T08:40:35.745Z,15.83
2022-12-03T08:43:14.910Z,15.47
2022-12-03T08:45:44.151Z,15.40
2022-12-03T08:48:37.806Z,15.80
2022-12-03T08:51:14.681Z,14.40
2022-12-03T08:53:47.080Z,14.17
2022-12-03T08:56:23.435Z,12.60
2022-12-03T08:58:55.459Z,13.80
2022-12-03T09:01:42.937Z,12.83
2022-12-03T09:04:28.662Z,12.23
2022-12-03T09:06:58.232Z,12.10
2022-12-03T09:09:27.681Z,12.37
2022-12-03T09:11:56.047Z,13.10
2022-12-03T09:14:24.561Z,12.40
2022-12-03T09:16:55.840Z,12.20
2022-12-03T09:19:30.833Z,12.53
2022-12-03T09:21:59.649Z,12.70
2022-12-03T09:24:27.937Z,12.97
2022-12-03T09:26:56.143Z,12.40
2022-12-03T09:29:24.437Z,12.90
2022-12-03T09:31:54.268Z,12.83
2022-12-03T09:34:22.628Z,11.60
2022-12-03T09:36:52.343Z,12.60
2022-12-03T09:39:20.588Z,13.60
2022-12-03T09:41:49.058Z,12.90
2022-12-03T09:44:18.366Z,12.87
2022-12-03T09:46:47.891Z,11.87
2022-12-03T09:49:19.774Z,10.97
2022-12-03T09:51:48.371Z,12.10
2022-12-03T09:54:24.854Z,11.80
2022-12-03T09:56:54.243Z,12.60
2022-12-03T09:59:24.553Z,12.43
2022-12-03T10:01:53.888Z,13.13
2022-12-03T10:04:22.694Z,12.53
2022-12-03T10:06:51.232Z,11.90
2022-12-03T10:09:27.349Z,12.30
2022-12-03T10:11:57.382Z,11.93
2022-12-03T10:14:26.449Z,12.70
2022-12-03T10:16:56.037Z,11.90
2022-12-03T10:19:29.272Z,11.43
2022-12-03T10:21:57.678Z,11.47
2022-12-03T10:24:30.046Z,11.77
2022-12-03T10:27:00.895Z,12.80
2022-12-03T10:29:34.243Z,12.87
2022-12-03T10:32:06.551Z,13.13
2022-12-03T10:34:37.504Z,13.10
2022-12-03T10:37:16.545Z,12.80
2022-12-03T10:39:59.634Z,13.50
2022-12-03T10:42:30.592Z,13.77
2022-12-03T10:45:18.579Z,13.33
2022-12-03T10:48:07.035Z,11.93
2022-12-03T10:50:37.907Z,13.23
2022-12-03T10:53:11.113Z,13.87
2022-12-03T10:55:44.075Z,12.43
2022-12-03T10:58:22.622Z,12.67
2022-12-03T11:00:53.233Z,12.53
2022-12-03T11:03:24.506Z,13.13
2022-12-03T11:05:54.807Z,12.47
2022-12-03T11:08:25.770Z,12.90
2022-12-03T11:11:01.459Z,13.30
2022-12-03T11:13:51.105Z,14.30
2022-12-03T11:17:07.312Z,13.73
2022-12-03T11:19:50.156Z,15.07
2022-12-03T11:22:40.613Z,15.13
2022-12-03T11:25:50.514Z,14.93
2022-12-03T11:28:54.143Z,13.73
2022-12-03T11:31:39.279Z,14.33
2022-12-03T11:34:50.726Z,13.83
2022-12-03T11:37:29.490Z,12.87
2022-12-03T11:40:27.475Z,13.93
2022-12-03T11:42:55.794Z,13.53
2022-12-03T11:45:35.182Z,13.97
2022-12-03T11:48:14.076Z,14.20
2022-12-03T11:50:44.846Z,15.13
2022-12-03T11:53:21.228Z,15.23
2022-12-03T11:56:06.075Z,14.20
2022-12-03T11:58:36.364Z,15.30
2022-12-03T12:01:08.320Z,15.77
2022-12-03T12:03:43.821Z,15.77
2022-12-03T12:06:14.201Z,15.50
2022-12-03T12:08:56.424Z,14.83
2022-12-03T12:11:30.618Z,15.30
2022-12-03T12:14:00.788Z,14.53
2022-12-03T12:16:50.169Z,14.83
2022-12-03T12:19:41.408Z,13.57
2022-12-03T12:22:32.845Z,12.77
2022-12-03T12:25:02.652Z,13.57
2022-12-03T12:27:37.586Z,13.73
2022-12-03T12:30:09.333Z,12.53
2022-12-03T12:32:47.114Z,13.13
2022-12-03T12:35:19.851Z,13.70
2022-12-03T12:37:59.224Z,12.77
2022-12-03T12:40:30.947Z,12.77
2022-12-03T12:43:08.446Z,12.00
2022-12-03T12:45:43.064Z,13.60
2022-12-03T12:48:24.729Z,13.47
2022-12-03T12:51:00.786Z,12.77
2022-12-03T12:53:31.944Z,12.67
2022-12-03T12:56:02.887Z,13.10
2022-12-03T12:58:33.705Z,12.13
2022-12-03T13:01:07.618Z,13.20
2022-12-03T13:03:41.002Z,12.10
2022-12-03T13:06:35.940Z,11.87
2022-12-03T13:09:04.622Z,11.30
2022-12-03T13:11:41.245Z,11.40
2022-12-03T13:14:17.902Z,12.80
2022-12-03T13:16:47.476Z,11.57
2022-12-03T13:19:24.596Z,11.93
2022-12-03T13:21:54.206Z,12.73
2022-12-03T13:24:33.087Z,11.83
2022-12-03T13:27:06.533Z,11.67
2022-12-03T13:29:34.961Z,11.50
2022-12-03T13:32:11.254Z,12.97
2022-12-03T13:34:41.951Z,11.90
2022-12-03T13:37:17.838Z,11.60
2022-12-03T13:39:49.283Z,11.33
2022-12-03T13:42:42.286Z,11.57
2022-12-03T13:45:33.345Z,11.60
2022-12-03T13:48:05.031Z,11.27
2022-12-03T13:50:38.033Z,11.90
2022-12-03T13:53:17.211Z,11.93
2022-12-03T13:55:47.674Z,12.53
2022-12-03T13:58:16.058Z,11.17
2022-12-03T14:00:45.094Z,11.80
2022-12-03T14:03:13.391Z,11.57
2022-12-03T14:05:43.246Z,12.50
2022-12-03T14:08:11.562Z,13.13
2022-12-03T14:10:40.080Z,12.00
2022-12-03T14:13:08.575Z,12.47
2022-12-03T14:15:38.059Z,11.63
2022-12-03T14:18:06.607Z,13.20
2022-12-03T14:20:36.460Z,20.07
2022-12-03T14:23:06.077Z,14.30
2022-12-03T14:25:34.468Z,15.00
2022-12-03T14:28:02.823Z,13.90
2022-12-03T14:30:31.456Z,15.83
2022-12-03T14:32:59.675Z,22.67
2022-12-03T14:35:28.088Z,20.73
2022-12-03T14:37:56.341Z,21.50
2022-12-03T14:40:26.288Z,14.07
2022-12-03T14:42:54.522Z,17.40
2022-12-03T14:45:24.227Z,12.47
2022-12-03T14:47:52.608Z,12.77
2022-12-03T14:50:20.907Z,14.23
2022-12-03T14:52:49.115Z,18.77
2022-12-03T14:55:17.564Z,23.17
2022-12-03T14:57:47.173Z,12.27
2022-12-03T15:00:16.824Z,13.13
2022-12-03T15:02:47.486Z,12.17
2022-12-03T15:05:15.904Z,11.03
2022-12-03T15:07:44.148Z,11.73
2022-12-03T15:10:12.926Z,12.60
2022-12-03T15:12:41.127Z,12.33
2022-12-03T15:15:12.141Z,16.50
2022-12-03T15:17:40.350Z,14.03
2022-12-03T15:20:10.256Z,26.27
2022-12-03T15:22:38.425Z,14.43
2022-12-03T15:25:07.886Z,22.87
2022-12-03T15:27:36.154Z,36.00
2022-12-03T15:30:05.085Z,14.53
2022-12-03T15:32:34.676Z,14.33
2022-12-03T15:35:02.985Z,13.40
2022-12-03T15:37:31.216Z,13.83
2022-12-03T15:39:59.665Z,12.50
2022-12-03T15:42:29.698Z,14.40
2022-12-03T15:44:57.969Z,13.60
2022-12-03T15:47:26.674Z,16.77
2022-12-03T15:49:56.629Z,17.03
2022-12-03T15:52:25.120Z,19.30
2022-12-03T15:54:53.619Z,16.33
2022-12-03T15:57:23.586Z,22.73
2022-12-03T15:59:52.747Z,30.30
2022-12-03T16:02:21.152Z,80.93
2022-12-03T16:04:49.515Z,76.90
2022-12-03T16:07:19.146Z,38.60
2022-12-03T16:09:47.401Z,31.93
2022-12-03T16:12:15.617Z,32.50
2022-12-03T16:14:44.340Z,16.03
2022-12-03T16:17:12.591Z,16.90
2022-12-03T16:19:40.810Z,22.77
2022-12-03T16:22:09.038Z,19.17
2022-12-03T16:24:38.774Z,15.90
2022-12-03T16:27:07.240Z,17.70
2022-12-03T16:29:35.701Z,15.10
2022-12-03T16:32:04.008Z,18.87
2022-12-03T16:34:32.288Z,26.40
2022-12-03T16:37:00.674Z,18.77
2022-12-03T16:39:28.987Z,29.03
2022-12-03T16:41:58.544Z,26.47
2022-12-03T16:44:43.698Z,18.70
2022-12-03T16:47:11.938Z,17.63
2022-12-03T16:49:40.229Z,23.80
2022-12-03T16:52:08.440Z,15.40
2022-12-03T16:54:37.710Z,16.17
2022-12-03T16:57:07.473Z,15.17
2022-12-03T16:59:35.788Z,15.43
2022-12-03T17:02:04.153Z,16.23
2022-12-03T17:04:34.279Z,14.77
2022-12-03T17:07:02.695Z,14.00
2022-12-03T17:09:31.200Z,13.90
2022-12-03T17:12:00.613Z,13.73
2022-12-03T17:14:33.380Z,13.17
2022-12-03T17:17:01.898Z,13.47
2022-12-03T17:19:30.260Z,14.07
2022-12-03T17:21:59.691Z,13.90
2022-12-03T17:24:27.921Z,13.77
2022-12-03T17:26:56.264Z,15.17
2022-12-03T17:29:24.537Z,15.47
2022-12-03T17:31:54.202Z,19.07
2022-12-03T17:34:22.553Z,17.83
2022-12-03T17:36:50.888Z,17.40
2022-12-03T17:39:19.269Z,20.10
2022-12-03T17:41:47.503Z,22.07
2022-12-03T17:44:20.733Z,15.13
2022-12-03T17:46:49.507Z,14.70
2022-12-03T17:49:19.155Z,15.03
2022-12-03T17:51:47.412Z,16.47
2022-12-03T17:54:15.724Z,15.90
2022-12-03T17:56:44.407Z,14.63
2022-12-03T17:59:13.182Z,15.30
2022-12-03T18:01:41.581Z,15.80
2022-12-03T18:04:10.670Z,15.30
2022-12-03T18:06:40.478Z,14.27
2022-12-03T18:09:08.755Z,15.83
2022-12-03T18:11:37.285Z,17.00
2022-12-03T18:14:05.578Z,15.23
2022-12-03T18:16:34.208Z,13.47
2022-12-03T18:19:06.276Z,14.27
2022-12-03T18:21:35.556Z,13.10
2022-12-03T18:24:06.537Z,13.90
2022-12-03T18:26:35.633Z,14.00
2022-12-03T18:29:03.958Z,22.97
2022-12-03T18:31:32.233Z,17.60
2022-12-03T18:34:00.501Z,12.23
2022-12-03T18:36:35.270Z,14.10
2022-12-03T18:39:09.185Z,14.07
2022-12-03T18:41:37.367Z,26.70
2022-12-03T18:44:10.742Z,21.97
2022-12-03T18:46:54.496Z,15.60
2022-12-03T18:49:23.114Z,16.30
2022-12-03T18:51:57.326Z,16.20
2022-12-03T18:54:28.805Z,15.50
2022-12-03T18:56:57.088Z,15.90
2022-12-03T18:59:25.332Z,13.57
2022-12-03T19:01:53.683Z,13.47
2022-12-03T19:04:24.554Z,14.07
2022-12-03T19:07:18.247Z,14.60
2022-12-03T19:09:48.258Z,13.63
2022-12-03T19:12:17.884Z,13.87
2022-12-03T19:14:46.517Z,13.70
2022-12-03T19:17:14.720Z,19.70
2022-12-03T19:19:42.973Z,16.50
2022-12-03T19:22:11.229Z,13.43
2022-12-03T19:24:39.490Z,11.67
2022-12-03T19:27:09.170Z,10.90
2022-12-03T19:29:37.463Z,11.47
2022-12-03T19:32:06.219Z,10.67
2022-12-03T19:34:34.536Z,10.97
2022-12-03T19:37:02.806Z,14.27
2022-12-03T19:39:31.814Z,33.23
2022-12-03T19:42:00.307Z,84.60
2022-12-03T19:44:29.864Z,32.53
2022-12-03T19:46:58.095Z,23.57
2022-12-03T19:49:27.194Z,18.50
2022-12-03T19:51:55.471Z,16.07
2022-12-03T19:54:24.400Z,14.70
2022-12-03T19:56:52.623Z,25.10
2022-12-03T19:59:20.854Z,20.20
2022-12-03T20:01:50.567Z,19.60
2022-12-03T20:04:18.951Z,13.30
2022-12-03T20:06:47.531Z,13.47
2022-12-03T20:09:17.950Z,14.70
2022-12-03T20:11:47.001Z,14.00
2022-12-03T20:14:17.482Z,12.13
2022-12-03T20:16:46.458Z,13.20
2022-12-03T20:19:18.553Z,11.53
2022-12-03T20:21:46.910Z,11.50
2022-12-03T20:24:18.237Z,11.60
2022-12-03T20:26:46.541Z,11.50
2022-12-03T20:29:14.835Z,11.20
2022-12-03T20:31:43.221Z,11.30
2022-12-03T20:34:12.543Z,10.80
2022-12-03T20:36:44.139Z,11.70
2022-12-03T20:39:12.763Z,13.50
2022-12-03T20:41:41.327Z,11.10
2022-12-03T20:44:09.963Z,11.97
2022-12-03T20:46:38.271Z,12.90
2022-12-03T20:49:06.629Z,13.10
2022-12-03T20:51:34.945Z,12.27
2022-12-03T20:54:04.912Z,11.60
2022-12-03T20:56:36.124Z,14.07
2022-12-03T20:59:09.121Z,16.10
2022-12-03T21:01:38.472Z,18.97
2022-12-03T21:04:08.495Z,15.50
2022-12-03T21:06:38.559Z,14.30
2022-12-03T21:09:10.195Z,12.10
2022-12-03T21:11:42.216Z,11.27
2022-12-03T21:14:11.914Z,13.13
2022-12-03T21:19:30.861Z,11.77
2022-12-03T21:21:59.147Z,14.90
2022-12-03T21:24:30.358Z,13.60
2022-12-03T21:26:58.679Z,12.43
2022-12-03T21:29:26.942Z,13.53
2022-12-03T21:31:55.182Z,13.43
2022-12-03T21:34:23.459Z,11.00
2022-12-03T21:36:51.689Z,11.47
2022-12-03T21:39:20.204Z,11.67
2022-12-03T21:42:22.259Z,11.40
2022-12-03T21:44:38.402Z,11.33
2022-12-03T21:47:12.136Z,11.20
2022-12-03T21:49:42.933Z,11.63
2022-12-03T21:52:13.524Z,11.00
2022-12-03T21:54:42.221Z,11.50
2022-12-03T21:57:12.004Z,14.90
2022-12-03T21:59:40.295Z,26.57
2022-12-03T22:02:08.617Z,19.13
2022-12-03T22:04:37.034Z,12.63
2022-12-03T22:07:06.626Z,12.17
2022-12-03T22:09:35.022Z,11.57
2022-12-03T22:12:03.270Z,11.40
2022-12-03T22:14:33.000Z,11.17
2022-12-03T22:17:01.623Z,11.00
2022-12-03T22:19:30.181Z,12.30
2022-12-03T22:21:58.455Z,11.83
2022-12-03T22:24:26.733Z,11.97
2022-12-03T22:26:55.114Z,11.47
2022-12-03T22:29:23.793Z,11.40
2022-12-03T22:31:53.455Z,11.33
2022-12-03T22:34:21.784Z,11.77
2022-12-03T22:36:50.038Z,11.17
2022-12-03T22:39:18.321Z,11.03
2022-12-03T22:41:46.661Z,10.83
2022-12-03T22:44:14.973Z,10.33
2022-12-03T22:46:43.376Z,10.97
2022-12-03T22:49:13.833Z,10.43
2022-12-03T22:51:42.311Z,10.90
2022-12-03T22:54:12.000Z,11.80
2022-12-03T22:56:40.504Z,12.03
2022-12-03T22:59:08.876Z,11.47
2022-12-03T23:01:39.765Z,10.80
2022-12-03T23:04:13.056Z,9.50
2022-12-03T23:06:41.399Z,10.70
2022-12-03T23:09:10.071Z,11.60
2022-12-03T23:11:53.763Z,10.20
2022-12-03T23:14:22.066Z,10.50
2022-12-03T23:16:50.358Z,11.23
2022-12-03T23:19:21.013Z,10.23
2022-12-03T23:21:49.358Z,10.50
2022-12-03T23:24:17.658Z,9.43
2022-12-03T23:26:45.909Z,10.87
2022-12-03T23:29:14.226Z,10.17
2022-12-03T23:31:42.667Z,9.43
2022-12-03T23:34:11.224Z,10.30
2022-12-03T23:36:40.938Z,9.97
2022-12-03T23:39:09.253Z,10.03
2022-12-03T23:41:37.539Z,9.53
2022-12-03T23:44:05.839Z,10.53
2022-12-03T23:46:34.178Z,10.63
2022-12-03T23:49:02.453Z,9.23
2022-12-03T23:51:30.692Z,10.13
2022-12-03T23:54:00.292Z,9.87
2022-12-03T23:56:31.269Z,11.20
2022-12-03T23:59:00.164Z,11.00
